Terminal Aerodrome Forecast
Issued by NWS St Louis, MO

Home | Current Version | Previous Version | Text Only | Print | Product List | Glossary On
Versions: 1 2 3 4 5 6 7 8 9 10 11 12 13 14 15 16 17 18 19 20 21 22 23 24 25 26
000
FTUS43 KLSX 051611 AAA
TAFCOU
TAF AMD
KCOU 051611Z 0516/0612 16007KT 1/4SM FG OVC002
      TEMPO 0516/0517 1SM BR BKN004
     FM051700 16008KT 3SM BR BKN006
     FM051800 16008KT P6SM FEW250
     FM060500 14004KT P6SM VCSH BKN050
     FM060800 VRB03KT P6SM BKN015=

USA.gov is the U.S. government's official web portal to all federal, state and local government web resources and services.